Time;durP1;ratioP1;P1;durP2;ratioP2;P2;SDS_P1;SDS_P2;PMS_P1;PMS_P2;Temp;Humidity;BMP_temperature;BMP_pressure;BME280_temperature;BME280_humidity;BME280_pressure;Samples;Min_cycle;Max_cycle;Signal;HPM_P1;HPM_P2
2022/04/04 00:00:18;;;;;;;6.17;5.57;;;;;;;4.97;62.91;95091.50;5075547;28;20941;-87
2022/04/04 00:02:45;;;;;;;7.83;6.57;;;;;;;4.88;63.08;95089.44;5075884;28;20448;-87
2022/04/04 00:05:12;;;;;;;9.77;6.00;;;;;;;4.76;63.12;95092.78;5075354;28;20445;-87
2022/04/04 00:07:39;;;;;;;6.77;6.17;;;;;;;4.77;62.61;95084.06;5075309;28;20502;-87
2022/04/04 00:10:08;;;;;;;7.90;6.67;;;;;;;4.76;63.20;95087.59;5075878;28;20456;-87
2022/04/04 00:12:35;;;;;;;5.70;5.20;;;;;;;4.72;63.77;95085.25;5075578;28;20461;-86
2022/04/04 00:15:03;;;;;;;8.80;6.67;;;;;;;4.81;63.61;95082.94;5075370;28;20476;-86
2022/04/04 00:17:30;;;;;;;5.80;5.20;;;;;;;4.83;63.70;95086.28;5075931;28;20452;-87
2022/04/04 00:19:57;;;;;;;6.37;4.77;;;;;;;4.84;62.02;95077.56;5076075;28;20460;-87
2022/04/04 00:22:24;;;;;;;5.90;5.40;;;;;;;4.88;62.52;95086.84;5075892;28;20429;-88
2022/04/04 00:28:15;;;;;;;7.53;5.50;;;;;;;4.92;63.91;95092.72;5074837;28;20428;-87
2022/04/04 00:30:43;;;;;;;6.10;5.50;;;;;;;4.91;63.82;95094.47;5076802;28;20448;-86
2022/04/04 00:33:10;;;;;;;7.57;5.53;;;;;;;4.88;64.67;95099.84;5076114;28;20461;-86
2022/04/04 00:35:37;;;;;;;8.20;7.03;;;;;;;4.92;63.38;95098.75;5075176;28;20476;-86
2022/04/04 00:38:06;;;;;;;6.80;5.50;;;;;;;4.95;63.97;95100.34;5075705;28;20444;-85
2022/04/04 00:40:33;;;;;;;6.30;5.70;;;;;;;4.85;63.59;95100.03;5075290;28;20432;-87
2022/04/04 00:43:00;;;;;;;7.53;6.30;;;;;;;4.80;64.42;95096.88;5075456;28;20440;-86
2022/04/04 00:45:28;;;;;;;7.07;6.10;;;;;;;4.76;65.78;95095.38;5074122;28;20809;-86
2022/04/04 00:47:55;;;;;;;7.87;6.70;;;;;;;4.73;65.76;95087.75;5074815;28;20433;-86
2022/04/04 00:50:23;;;;;;;6.90;5.67;;;;;;;4.75;65.35;95090.28;5074882;28;20437;-86
2022/04/04 00:52:51;;;;;;;9.67;7.23;;;;;;;4.73;64.94;95095.56;5074858;28;20429;-86
2022/04/04 00:58:39;;;;;;;7.17;5.53;;;;;;;4.74;65.87;95099.84;5073673;28;20424;-86
2022/04/04 01:01:08;;;;;;;6.20;5.60;;;;;;;4.84;66.44;95100.13;5080374;28;20441;-85
2022/04/04 01:03:35;;;;;;;7.20;5.83;;;;;;;4.94;65.52;95091.72;5084130;28;20441;-86
2022/04/04 01:06:03;;;;;;;6.30;5.70;;;;;;;4.91;64.33;95089.25;5082636;28;20786;-85
2022/04/04 01:08:30;;;;;;;7.50;6.00;;;;;;;4.91;64.63;95089.25;5077162;28;20448;-86
2022/04/04 01:10:57;;;;;;;6.80;6.07;;;;;;;4.89;64.03;95091.13;5077568;28;20441;-86
2022/04/04 01:13:24;;;;;;;5.83;5.33;;;;;;;4.96;64.73;95095.03;5075196;28;20455;-85
2022/04/04 01:15:50;;;;;;;6.03;5.50;;;;;;;4.96;65.25;95089.00;5077082;28;20481;-86
2022/04/04 01:18:19;;;;;;;6.70;6.07;;;;;;;4.92;64.52;95083.16;5074655;28;20804;-86
2022/04/04 01:20:46;;;;;;;5.43;4.93;;;;;;;4.84;63.04;95084.53;5039384;28;20441;-86
2022/04/04 01:23:14;;;;;;;6.77;6.07;;;;;;;4.68;64.35;95083.78;5074725;28;20429;-86
2022/04/04 01:25:42;;;;;;;7.43;5.77;;;;;;;4.56;64.80;95086.13;5074139;28;20460;-85
2022/04/04 01:28:09;;;;;;;6.20;5.20;;;;;;;4.41;64.81;95092.25;5073890;28;20475;-86
2022/04/04 01:30:36;;;;;;;6.93;5.33;;;;;;;4.49;65.16;95079.63;5074142;28;20441;-85
2022/04/04 01:33:03;;;;;;;9.13;5.80;;;;;;;4.38;65.31;95083.78;5074456;28;20498;-86
2022/04/04 01:35:30;;;;;;;6.23;5.30;;;;;;;4.31;65.55;95081.53;5073784;28;20842;-86
2022/04/04 01:41:20;;;;;;;7.40;5.63;;;;;;;4.28;66.31;95075.66;5074202;28;20435;-86
2022/04/04 01:43:47;;;;;;;7.13;5.50;;;;;;;4.40;65.81;95079.34;5074115;28;20424;-86
2022/04/04 01:46:27;;;;;;;6.83;6.07;;;;;;;4.53;66.51;95073.31;5074551;28;20448;-86
2022/04/04 01:48:55;;;;;;;6.17;5.63;;;;;;;4.60;66.10;95085.03;5081545;28;20448;-85
2022/04/04 01:51:22;;;;;;;8.00;5.70;;;;;;;4.69;65.86;95091.47;5074620;28;20435;-86
2022/04/04 01:53:50;;;;;;;6.00;5.50;;;;;;;4.73;65.49;95085.16;5074366;28;20436;-85
2022/04/04 01:56:19;;;;;;;8.47;6.00;;;;;;;4.70;64.71;95093.16;5079543;28;20502;-85
2022/04/04 01:58:46;;;;;;;7.03;6.10;;;;;;;4.70;64.52;95092.31;5078945;28;20447;-86
2022/04/04 02:01:15;;;;;;;6.50;5.60;;;;;;;4.58;64.87;95086.06;5078041;28;20939;-86
2022/04/04 02:03:43;;;;;;;6.63;5.60;;;;;;;4.55;64.91;95091.44;5079231;28;20453;-85
2022/04/04 02:06:10;;;;;;;5.83;5.20;;;;;;;4.47;65.55;95086.69;5078128;28;20444;-86
2022/04/04 02:08:38;;;;;;;6.77;5.00;;;;;;;4.26;65.89;95078.34;5078492;28;20466;-86
2022/04/04 02:11:05;;;;;;;6.40;5.80;;;;;;;4.27;66.31;95085.22;5079335;28;20847;-87
2022/04/04 02:13:33;;;;;;;6.27;5.67;;;;;;;4.22;65.82;95086.41;5050677;28;20456;-86
2022/04/04 02:16:02;;;;;;;6.80;5.60;;;;;;;4.23;66.35;95077.69;5068701;28;20492;-87
2022/04/04 02:18:29;;;;;;;7.63;5.60;;;;;;;4.17;65.92;95076.28;5095797;28;20419;-83
2022/04/04 02:20:56;;;;;;;8.87;5.83;;;;;;;4.23;67.22;95077.69;5100974;28;20425;-83
2022/04/04 02:23:24;;;;;;;8.60;6.13;;;;;;;4.26;66.81;95064.53;5100943;28;20433;-84
2022/04/04 02:25:52;;;;;;;6.13;5.63;;;;;;;4.36;66.01;95078.69;5066463;28;20413;-86
2022/04/04 02:28:20;;;;;;;6.80;5.97;;;;;;;4.46;65.96;95076.38;5101298;28;20443;-82
2022/04/04 02:30:49;;;;;;;8.27;5.90;;;;;;;4.50;65.55;95085.66;5066687;28;20465;-83
2022/04/04 02:33:16;;;;;;;6.03;5.43;;;;;;;4.53;65.88;95082.88;5100426;28;20444;-83
2022/04/04 02:35:44;;;;;;;6.70;5.67;;;;;;;4.56;65.58;95080.09;5100717;28;20506;-84
2022/04/04 02:38:11;;;;;;;6.00;4.80;;;;;;;4.65;65.17;95074.41;5100533;28;20440;-83
2022/04/04 02:40:38;;;;;;;5.63;5.00;;;;;;;4.66;64.53;95073.47;5100545;28;20472;-84
2022/04/04 02:43:06;;;;;;;6.00;5.40;;;;;;;4.73;65.63;95066.97;5100764;28;20493;-84
2022/04/04 02:45:34;;;;;;;6.73;5.73;;;;;;;4.70;63.50;95069.75;5100384;28;20420;-86
2022/04/04 02:48:03;;;;;;;5.13;4.63;;;;;;;4.59;64.60;95069.53;5065755;28;20421;-83
2022/04/04 02:50:30;;;;;;;6.80;6.10;;;;;;;4.55;64.28;95061.09;5089776;28;20433;-86
2022/04/04 02:52:57;;;;;;;6.47;5.87;;;;;;;4.43;65.08;95064.41;5077440;28;20429;-85
2022/04/04 02:58:16;;;;;;;6.60;5.93;;;;;;;4.22;65.29;95063.88;5015631;28;20428;-86
2022/04/04 03:00:43;;;;;;;14.03;6.13;;;;;;;4.14;65.55;95060.88;5015414;28;20795;-85
2022/04/04 03:03:11;;;;;;;8.63;7.07;;;;;;;4.16;65.77;95063.41;4982865;28;20447;-86
2022/04/04 03:05:39;;;;;;;9.20;6.43;;;;;;;4.37;65.52;95071.72;5015345;28;20455;-85
2022/04/04 03:08:07;;;;;;;12.77;8.17;;;;;;;4.55;65.08;95075.84;5014351;28;20458;-85
2022/04/04 03:10:34;;;;;;;8.77;6.90;;;;;;;4.64;64.18;95072.72;4982836;28;20989;-85
2022/04/04 03:13:02;;;;;;;7.83;7.07;;;;;;;4.67;64.53;95064.75;4982987;28;20440;-86
2022/04/04 03:15:29;;;;;;;8.27;7.40;;;;;;;4.72;64.04;95062.69;5016331;28;20494;-86
2022/04/04 03:17:57;;;;;;;10.10;8.50;;;;;;;4.76;64.45;95078.94;5017511;28;20443;-85
2022/04/04 03:20:26;;;;;;;7.10;6.43;;;;;;;4.58;64.41;95073.88;5018186;28;20850;-86
2022/04/04 03:22:55;;;;;;;7.60;6.83;;;;;;;4.57;64.35;95074.81;5018566;28;20942;-86
2022/04/04 03:25:22;;;;;;;7.73;6.93;;;;;;;4.53;64.58;95077.69;4988342;28;20551;-84
2022/04/04 03:27:50;;;;;;;12.73;8.20;;;;;;;4.54;64.55;95085.41;5017533;28;20502;-86
2022/04/04 03:30:18;;;;;;;8.53;7.63;;;;;;;4.50;65.83;95073.50;5018156;28;20439;-86
2022/04/04 03:39:37;;;;;;;8.73;7.83;;;;;;;4.31;65.58;95091.06;5068376;28;20537;-85
2022/04/04 03:42:04;;;;;;;8.50;7.60;;;;;;;4.15;65.59;95092.88;5078278;28;20435;-87
2022/04/04 03:44:31;;;;;;;11.43;8.30;;;;;;;4.16;66.62;95091.97;5076615;28;20516;-87
2022/04/04 03:46:58;;;;;;;9.87;8.80;;;;;;;4.21;66.97;95102.91;5076458;28;20429;-85
2022/04/04 03:49:24;;;;;;;9.33;7.57;;;;;;;4.24;66.10;95106.19;5076181;28;20429;-86
2022/04/04 03:51:51;;;;;;;9.60;8.30;;;;;;;4.28;66.61;95097.28;5076477;28;20528;-87
2022/04/04 03:54:20;;;;;;;9.10;8.20;;;;;;;4.32;65.71;95103.97;5076577;28;20451;-87
2022/04/04 03:56:48;;;;;;;9.40;8.50;;;;;;;4.41;65.44;95101.78;5076077;28;20481;-85
2022/04/04 03:59:15;;;;;;;9.50;7.53;;;;;;;4.43;65.51;95115.53;5077064;28;20453;-87
2022/04/04 04:01:42;;;;;;;11.33;8.40;;;;;;;4.58;65.92;95117.22;5077955;28;20453;-88
2022/04/04 04:04:09;;;;;;;11.70;8.73;;;;;;;4.66;66.14;95123.69;5078185;28;20445;-85
2022/04/04 04:06:37;;;;;;;9.70;8.13;;;;;;;4.63;64.59;95118.66;5079313;28;20449;-86
2022/04/04 04:09:04;;;;;;;11.07;9.50;;;;;;;4.68;64.84;95115.78;5078892;28;20514;-84
2022/04/04 04:11:31;;;;;;;11.20;9.23;;;;;;;4.56;64.95;95127.72;5076442;28;20452;-85
2022/04/04 04:14:00;;;;;;;12.57;8.57;;;;;;;4.45;65.51;95130.09;5075616;28;20432;-85
2022/04/04 04:16:27;;;;;;;11.27;9.07;;;;;;;4.39;65.56;95130.47;5075159;28;20487;-86
2022/04/04 04:18:54;;;;;;;12.30;9.70;;;;;;;4.38;66.32;95138.34;5078812;28;20503;-85
2022/04/04 04:21:21;;;;;;;12.20;9.13;;;;;;;4.38;65.34;95153.94;5075200;28;20472;-85
2022/04/04 04:23:48;;;;;;;11.10;9.40;;;;;;;4.26;65.66;95145.03;5075103;28;20491;-84
2022/04/04 04:26:15;;;;;;;13.00;10.20;;;;;;;4.38;65.86;95151.34;5075090;28;20437;-86
2022/04/04 04:28:42;;;;;;;13.70;10.27;;;;;;;4.41;65.63;95146.78;5074890;28;20437;-85
2022/04/04 04:31:11;;;;;;;12.60;9.93;;;;;;;4.61;66.53;95149.06;5076014;28;20449;-85
2022/04/04 04:33:38;;;;;;;11.60;9.97;;;;;;;4.68;65.29;95151.34;5074931;28;20479;-86
2022/04/04 04:36:05;;;;;;;14.23;10.10;;;;;;;4.82;64.43;95157.41;5074865;28;20488;-84
2022/04/04 04:38:32;;;;;;;11.90;9.70;;;;;;;4.83;64.31;95169.47;5075358;28;20448;-85
2022/04/04 04:40:59;;;;;;;16.60;9.30;;;;;;;4.94;63.83;95174.06;5074926;28;20464;-85
2022/04/04 04:43:26;;;;;;;10.23;9.23;;;;;;;4.89;63.32;95176.06;5075415;28;20437;-85
2022/04/04 04:45:54;;;;;;;10.07;9.00;;;;;;;5.03;64.06;95180.50;5075988;28;20449;-85
2022/04/04 04:48:22;;;;;;;12.50;9.30;;;;;;;5.00;63.10;95178.06;5039785;28;20437;-82
2022/04/04 04:50:49;;;;;;;13.73;10.10;;;;;;;5.05;63.32;95176.03;5075893;28;20448;-86
2022/04/04 04:53:17;;;;;;;17.07;10.70;;;;;;;5.02;62.30;95171.03;5077459;28;20823;-87
2022/04/04 04:55:44;;;;;;;14.50;11.37;;;;;;;4.97;63.06;95176.50;5075770;28;20476;-87
2022/04/04 04:58:12;;;;;;;12.23;9.57;;;;;;;4.83;63.05;95176.44;5075221;28;20916;-86
2022/04/04 05:00:40;;;;;;;10.43;9.37;;;;;;;4.76;62.98;95175.13;5076681;28;20503;-85
2022/04/04 05:03:26;;;;;;;13.20;9.30;;;;;;;4.70;64.04;95181.53;5074391;28;20904;-84
2022/04/04 05:05:55;;;;;;;12.00;10.23;;;;;;;4.58;63.73;95177.00;5075246;28;20463;-86
2022/04/04 05:08:22;;;;;;;11.33;9.10;;;;;;;4.69;64.77;95174.66;5075423;28;20915;-85
2022/04/04 05:10:51;;;;;;;17.40;11.27;;;;;;;4.69;64.07;95177.25;5077817;28;20448;-85
2022/04/04 05:13:19;;;;;;;14.90;10.03;;;;;;;4.64;64.37;95181.88;5076834;28;20429;-85
2022/04/04 05:15:46;;;;;;;16.90;9.57;;;;;;;4.72;64.76;95190.06;5039264;28;20481;-85
2022/04/04 05:18:13;;;;;;;16.37;11.30;;;;;;;4.79;64.17;95188.78;5074611;28;20452;-86
2022/04/04 05:20:40;;;;;;;16.30;10.80;;;;;;;4.87;64.07;95183.97;5077113;28;20532;-86
2022/04/04 05:23:08;;;;;;;15.23;10.90;;;;;;;5.04;65.12;95189.97;5094982;28;21222;-85
2022/04/04 05:25:35;;;;;;;10.80;9.47;;;;;;;5.03;63.69;95196.09;5094511;28;20527;-88
2022/04/04 05:28:02;;;;;;;13.80;9.83;;;;;;;4.96;63.85;95199.06;5094826;28;20447;-86
2022/04/04 05:30:29;;;;;;;13.07;11.67;;;;;;;5.02;69.19;95197.84;5094897;28;20428;-86
2022/04/04 05:32:56;;;;;;;14.00;11.27;;;;;;;4.95;67.92;95197.38;5094181;28;20558;-86
2022/04/04 05:35:23;;;;;;;12.80;10.87;;;;;;;5.04;66.31;95206.41;5094714;28;20535;-87
2022/04/04 05:48:34;;;;;;;15.47;11.13;;;;;;;4.86;65.81;95216.09;5040957;28;20453;-89
2022/04/04 05:51:02;;;;;;;14.40;11.07;;;;;;;4.85;66.25;95219.63;5054248;28;20940;-85
2022/04/04 05:53:29;;;;;;;17.17;13.80;;;;;;;4.92;65.82;95220.97;5054743;28;20848;-86
2022/04/04 05:55:56;;;;;;;21.87;14.93;;;;;;;5.09;65.88;95219.97;5053666;28;20481;-87
2022/04/04 05:58:22;;;;;;;21.97;12.77;;;;;;;5.20;65.50;95228.00;5054396;28;20811;-88
2022/04/04 06:00:50;;;;;;;16.90;12.87;;;;;;;5.39;66.30;95238.16;5055530;28;20479;-83
2022/04/04 06:03:18;;;;;;;16.60;12.83;;;;;;;5.65;65.41;95236.63;5071900;28;20510;-86
2022/04/04 06:05:49;;;;;;;16.83;13.23;;;;;;;5.79;64.31;95243.59;5076077;28;20476;-85
2022/04/04 06:08:17;;;;;;;14.33;11.53;;;;;;;5.78;63.69;95236.69;5077013;28;20508;-85
2022/04/04 06:10:45;;;;;;;17.83;12.17;;;;;;;5.88;66.12;95230.84;5076014;28;20460;-84
2022/04/04 06:13:13;;;;;;;13.70;11.33;;;;;;;5.96;62.42;95235.63;5074324;28;20456;-85
2022/04/04 06:15:40;;;;;;;13.90;10.50;;;;;;;6.06;61.68;95233.28;5073768;28;20959;-85
2022/04/04 06:18:07;;;;;;;20.20;12.13;;;;;;;6.20;62.40;95221.09;5073384;28;20541;-86
2022/04/04 06:20:34;;;;;;;13.27;10.53;;;;;;;6.40;63.05;95216.41;5073794;28;20447;-87
2022/04/04 06:23:04;;;;;;;21.63;11.83;;;;;;;6.53;60.59;95225.94;5073523;28;20453;-86
2022/04/04 06:25:31;;;;;;;12.33;9.50;;;;;;;6.57;60.07;95228.34;5073675;28;20821;-85
2022/04/04 06:34:42;;;;;;;12.13;10.17;;;;;;;7.00;59.02;95221.22;5073992;28;20452;-86
2022/04/04 06:37:10;;;;;;;22.13;12.87;;;;;;;7.33;59.29;95225.97;5073619;28;20518;-86
2022/04/04 06:39:39;;;;;;;19.67;11.93;;;;;;;7.75;57.80;95230.06;5074218;28;20442;-86
2022/04/04 06:42:06;;;;;;;15.47;12.20;;;;;;;7.89;56.04;95237.81;5073764;28;20451;-86
2022/04/04 06:44:33;;;;;;;13.67;11.70;;;;;;;8.07;55.78;95231.28;5075997;28;20523;-86
2022/04/04 06:47:00;;;;;;;15.63;10.00;;;;;;;7.81;54.86;95239.28;5076966;28;20441;-87
2022/04/04 06:49:27;;;;;;;16.83;11.10;;;;;;;7.73;55.59;95235.41;5077632;28;20812;-83
2022/04/04 07:02:01;;;;;;;14.07;9.87;;;;;;;8.34;55.44;95236.41;5075710;28;20528;-86
2022/04/04 07:04:28;;;;;;;12.23;9.40;;;;;;;8.55;53.99;95231.44;5079135;28;20490;-87
2022/04/04 07:06:55;;;;;;;15.07;10.03;;;;;;;8.87;53.72;95236.13;5077756;28;20898;-85
2022/04/04 07:09:23;;;;;;;11.70;9.47;;;;;;;8.99;52.70;95225.63;5076935;28;20455;-87
2022/04/04 07:11:51;;;;;;;21.17;11.40;;;;;;;9.18;51.94;95229.50;5077610;28;20834;-86
2022/04/04 07:14:18;;;;;;;14.17;11.73;;;;;;;9.39;51.30;95232.31;5088582;28;20546;-86
2022/04/04 07:16:45;;;;;;;13.97;12.47;;;;;;;9.50;52.88;95232.34;5104348;28;20479;-86
2022/04/04 07:19:15;;;;;;;12.03;10.37;;;;;;;9.58;50.60;95227.38;5105698;28;20479;-85
2022/04/04 07:21:42;;;;;;;15.17;11.30;;;;;;;9.72;50.74;95235.00;5109740;28;20440;-85
2022/04/04 07:24:09;;;;;;;13.73;11.00;;;;;;;9.69;51.15;95232.63;5113369;28;20440;-86
2022/04/04 07:26:36;;;;;;;12.63;10.83;;;;;;;9.70;50.95;95239.53;5092270;28;20452;-87
2022/04/04 07:29:03;;;;;;;12.07;10.73;;;;;;;9.48;50.12;95236.84;5075904;28;20442;-87
2022/04/04 07:31:30;;;;;;;12.77;10.23;;;;;;;9.49;50.47;95238.53;5076170;28;20450;-86
2022/04/04 07:33:57;;;;;;;11.17;9.67;;;;;;;9.44;51.36;95233.63;5076614;28;20466;-84
2022/04/04 07:36:26;;;;;;;17.53;9.80;;;;;;;9.58;50.85;95240.47;5077012;28;20487;-87
2022/04/04 07:38:53;;;;;;;14.20;10.40;;;;;;;9.60;51.31;95247.25;5073207;28;20450;-88
2022/04/04 07:41:21;;;;;;;11.97;10.67;;;;;;;9.76;50.91;95246.91;5056776;28;20449;-90
2022/04/04 07:43:47;;;;;;;13.27;10.83;;;;;;;9.91;50.49;95248.41;5056178;28;20461;-86
2022/04/04 07:46:15;;;;;;;11.17;10.00;;;;;;;10.07;50.46;95240.16;5056204;28;20446;-87
2022/04/04 07:48:45;;;;;;;12.47;10.53;;;;;;;9.95;49.66;95251.63;5056277;28;21052;-85
2022/04/04 07:51:12;;;;;;;12.47;10.50;;;;;;;9.93;49.86;95253.53;5022051;28;20986;-86
2022/04/04 07:53:41;;;;;;;14.67;11.83;;;;;;;9.89;50.87;95246.84;5055766;28;20446;-87
2022/04/04 07:56:08;;;;;;;17.80;11.43;;;;;;;9.72;50.72;95245.50;5055657;28;20478;-88
2022/04/04 07:58:35;;;;;;;11.53;10.03;;;;;;;9.75;51.16;95253.13;5056638;28;20970;-91
2022/04/04 08:01:03;;;;;;;11.63;10.17;;;;;;;9.83;51.45;95250.78;5056261;28;20452;-88
2022/04/04 08:03:30;;;;;;;13.30;10.50;;;;;;;9.88;50.27;95251.25;5055873;28;20908;-88
2022/04/04 08:05:57;;;;;;;10.70;9.60;;;;;;;9.45;51.08;95250.19;5056684;28;20457;-89
2022/04/04 08:08:24;;;;;;;13.67;10.70;;;;;;;9.38;51.97;95246.34;5056810;28;20457;-88
2022/04/04 08:10:53;;;;;;;13.00;9.57;;;;;;;9.54;51.33;95247.72;5055704;28;20512;-89
2022/04/04 08:13:20;;;;;;;14.33;10.60;;;;;;;9.53;52.81;95247.81;5056602;28;20916;-91
2022/04/04 08:15:47;;;;;;;12.57;10.93;;;;;;;9.66;50.86;95245.97;5055436;28;20500;-91
2022/04/04 08:18:14;;;;;;;15.23;10.77;;;;;;;9.85;49.93;95238.38;5056494;28;20464;-89
2022/04/04 08:20:41;;;;;;;13.83;11.60;;;;;;;9.75;49.98;95239.19;5056289;28;20947;-89
2022/04/04 08:23:09;;;;;;;13.17;10.70;;;;;;;9.85;51.53;95235.75;5055818;28;20955;-89
2022/04/04 08:25:36;;;;;;;12.10;10.23;;;;;;;10.03;51.34;95230.03;5055696;28;20857;-89
2022/04/04 08:28:05;;;;;;;17.80;13.90;;;;;;;10.20;50.36;95230.44;5075381;28;20521;-88
2022/04/04 08:33:54;;;;;;;17.17;11.67;;;;;;;10.07;53.57;95223.59;5074919;28;20482;-89
2022/04/04 08:36:21;;;;;;;13.77;11.70;;;;;;;9.68;51.66;95217.03;5075473;28;20476;-88
2022/04/04 08:38:48;;;;;;;12.87;10.37;;;;;;;9.68;50.65;95217.84;5075334;28;20449;-88
2022/04/04 08:41:16;;;;;;;14.50;12.33;;;;;;;9.73;50.95;95215.72;5075094;28;20436;-89
2022/04/04 08:43:44;;;;;;;15.80;12.57;;;;;;;9.80;50.89;95210.84;5075641;28;20445;-85
2022/04/04 08:49:33;;;;;;;12.90;11.60;;;;;;;10.14;50.66;95196.81;5065971;28;20549;-88
2022/04/04 08:52:00;;;;;;;16.53;13.20;;;;;;;9.70;50.82;95204.63;5075687;28;20540;-86
2022/04/04 08:54:27;;;;;;;16.47;13.50;;;;;;;9.71;51.43;95196.66;5075081;28;20461;-86
2022/04/04 08:56:54;;;;;;;15.87;12.70;;;;;;;9.70;51.20;95179.25;5074632;28;20476;-85
2022/04/04 08:59:23;;;;;;;14.70;11.93;;;;;;;9.91;51.79;95180.25;5074451;28;20524;-88
2022/04/04 09:01:50;;;;;;;13.83;11.20;;;;;;;10.04;50.40;95179.28;5066710;28;20451;-85
2022/04/04 09:11:00;;;;;;;14.90;10.50;;;;;;;10.70;48.42;95175.75;5054212;28;20455;-85
2022/04/04 09:13:29;;;;;;;12.37;10.47;;;;;;;10.89;47.76;95167.22;5063339;28;20502;-88
2022/04/04 09:15:59;;;;;;;11.90;10.50;;;;;;;10.86;47.84;95162.22;5074787;28;20476;-85
2022/04/04 09:18:47;;;;;;;14.90;12.17;;;;;;;10.92;47.00;95168.75;5074864;28;20475;-87
2022/04/04 09:21:31;;;;;;;12.97;11.07;;;;;;;10.86;47.72;95162.22;5074760;28;20524;-87
2022/04/04 09:24:02;;;;;;;17.10;12.83;;;;;;;10.44;49.09;95162.13;5076299;28;20436;-86
2022/04/04 09:26:32;;;;;;;14.70;12.00;;;;;;;10.39;49.78;95161.63;5075109;28;20775;-87
2022/04/04 09:29:00;;;;;;;15.20;12.87;;;;;;;10.42;49.18;95158.78;5074761;28;20453;-86
2022/04/04 09:31:29;;;;;;;16.73;13.10;;;;;;;10.57;48.58;95148.00;5076447;28;20461;-86
2022/04/04 09:34:01;;;;;;;20.40;12.07;;;;;;;10.75;47.78;95146.50;5074830;28;20459;-87
2022/04/04 09:36:30;;;;;;;21.03;12.70;;;;;;;10.74;47.75;95145.69;5056860;28;20459;-87
2022/04/04 09:39:03;;;;;;;15.70;12.83;;;;;;;10.84;46.95;95140.50;5075023;28;20539;-88
2022/04/04 09:41:31;;;;;;;15.97;12.00;;;;;;;11.02;48.01;95132.91;5074602;28;20444;-87
2022/04/04 09:43:59;;;;;;;16.23;12.50;;;;;;;11.22;47.64;95144.38;5074488;28;20440;-86
2022/04/04 09:46:33;;;;;;;18.00;11.70;;;;;;;11.20;47.46;95139.25;5074104;28;20433;-86
2022/04/04 09:49:09;;;;;;;15.30;12.37;;;;;;;11.16;47.22;95133.44;5074349;28;20475;-87
2022/04/04 09:51:44;;;;;;;15.30;11.47;;;;;;;10.95;45.88;95135.19;5074599;28;20467;-86
2022/04/04 09:54:14;;;;;;;14.80;11.47;;;;;;;10.80;45.72;95124.19;5076056;28;20437;-87
2022/04/04 09:56:42;;;;;;;19.37;11.70;;;;;;;10.82;48.07;95121.44;5074021;28;20464;-87
2022/04/04 09:59:12;;;;;;;19.83;11.53;;;;;;;10.85;47.08;95113.28;5074331;28;20452;-86
2022/04/04 10:01:41;;;;;;;14.47;12.03;;;;;;;10.48;48.62;95108.44;5075241;28;20472;-87
2022/04/04 10:04:09;;;;;;;16.30;12.13;;;;;;;10.25;49.41;95114.69;5075008;28;20425;-87
2022/04/04 10:06:38;;;;;;;12.97;11.57;;;;;;;10.31;48.97;95105.50;5074565;28;20445;-87
2022/04/04 10:09:05;;;;;;;16.10;11.70;;;;;;;10.17;49.13;95106.56;5074942;28;20907;-87
2022/04/04 10:11:34;;;;;;;17.50;11.80;;;;;;;10.30;49.90;95102.03;5074567;28;20456;-88
2022/04/04 10:14:02;;;;;;;16.00;11.47;;;;;;;9.92;49.30;95092.78;5039762;28;20456;-87
2022/04/04 10:19:52;;;;;;;13.67;11.23;;;;;;;10.05;49.89;95079.53;5076827;28;20930;-88
2022/04/04 10:22:20;;;;;;;11.83;10.63;;;;;;;9.94;50.71;95080.38;5077772;28;20444;-88
2022/04/04 10:24:48;;;;;;;15.10;12.43;;;;;;;9.87;50.74;95070.53;5074137;28;20437;-87
2022/04/04 10:27:20;;;;;;;14.50;11.10;;;;;;;9.68;51.14;95067.66;5077930;28;20791;-87
2022/04/04 10:29:47;;;;;;;16.30;10.90;;;;;;;9.90;50.78;95071.09;5077934;28;20535;-86
2022/04/04 10:32:24;;;;;;;17.47;11.97;;;;;;;9.84;50.56;95058.50;5077997;28;20463;-87
2022/04/04 10:34:52;;;;;;;16.47;12.00;;;;;;;9.94;51.22;95058.59;5077478;28;20436;-87
2022/04/04 10:37:21;;;;;;;16.90;11.60;;;;;;;10.19;50.33;95065.31;5079685;28;20478;-87
2022/04/04 10:39:50;;;;;;;14.63;11.17;;;;;;;10.38;49.82;95055.03;5080508;28;20472;-89
2022/04/04 10:42:32;;;;;;;21.77;12.37;;;;;;;10.54;48.29;95058.06;5075915;28;20970;-88
2022/04/04 10:45:02;;;;;;;14.40;12.07;;;;;;;10.78;48.69;95062.28;5057372;28;20438;-88
2022/04/04 10:47:30;;;;;;;13.97;10.97;;;;;;;10.84;49.25;95048.63;5056838;28;20525;-88
2022/04/04 10:50:17;;;;;;;16.33;11.53;;;;;;;10.93;49.04;95047.84;5057461;28;20477;-88
2022/04/04 10:52:45;;;;;;;14.07;10.47;;;;;;;10.54;48.19;95047.59;5057145;28;20901;-87
2022/04/04 10:55:43;;;;;;;12.57;10.90;;;;;;;10.73;49.02;95048.69;5057508;28;20462;-88
2022/04/04 10:58:20;;;;;;;13.90;10.77;;;;;;;10.89;47.62;95046.44;5050573;28;20531;-87
2022/04/04 11:01:03;;;;;;;15.80;12.97;;;;;;;10.92;47.43;95043.56;5057044;28;20441;-87
2022/04/04 11:03:34;;;;;;;12.80;11.13;;;;;;;10.97;48.15;95036.13;5057423;28;20442;-88
2022/04/04 11:09:11;;;;;;;13.73;10.40;;;;;;;10.74;48.40;95029.38;5056604;28;20417;-87
2022/04/04 11:11:43;;;;;;;12.57;10.50;;;;;;;10.80;48.87;95039.34;5057653;28;20456;-87
2022/04/04 11:14:10;;;;;;;15.00;11.87;;;;;;;10.84;49.44;95033.72;5056924;28;20442;-88
2022/04/04 11:23:30;;;;;;;12.73;11.53;;;;;;;10.64;48.25;95037.16;5055796;28;20440;-87
2022/04/04 11:25:58;;;;;;;18.43;12.10;;;;;;;10.70;49.58;95026.16;5060765;28;20437;-87
2022/04/04 11:28:30;;;;;;;14.07;11.40;;;;;;;10.60;49.37;95020.00;5071292;28;20446;-88
2022/04/04 11:31:05;;;;;;;12.90;10.77;;;;;;;10.60;51.12;95012.13;5075688;28;20991;-87
2022/04/04 11:33:34;;;;;;;14.17;10.40;;;;;;;10.84;50.34;95012.72;5076542;28;20543;-87
2022/04/04 11:36:03;;;;;;;13.77;10.30;;;;;;;10.99;49.06;95005.34;5076589;28;20528;-87
2022/04/04 11:38:38;;;;;;;18.27;11.40;;;;;;;11.20;50.52;95005.28;5076158;28;20485;-88
2022/04/04 11:41:11;;;;;;;14.17;10.77;;;;;;;11.29;48.74;95001.06;5076798;28;20461;-86
2022/04/04 11:43:40;;;;;;;15.93;10.70;;;;;;;11.09;49.42;94995.72;5075985;28;20444;-86
2022/04/04 11:46:19;;;;;;;15.83;10.10;;;;;;;11.36;49.42;94995.16;5041286;28;20441;-88
2022/04/04 11:48:51;;;;;;;14.07;10.93;;;;;;;11.52;48.04;94994.63;5076462;28;20498;-86
2022/04/04 11:58:09;;;;;;;13.77;10.47;;;;;;;11.53;49.40;94980.53;5074808;28;20530;-89
2022/04/04 12:00:38;;;;;;;15.40;9.50;;;;;;;11.58;47.45;94975.75;5075746;28;20437;-88
2022/04/04 12:03:09;;;;;;;16.00;11.80;;;;;;;11.75;48.36;94964.56;5081125;28;20459;-87
2022/04/04 12:05:37;;;;;;;23.27;14.27;;;;;;;11.89;48.00;94966.00;5076153;28;20463;-88
2022/04/04 12:08:06;;;;;;;14.60;10.40;;;;;;;11.90;47.87;94964.22;5075670;28;20495;-88
2022/04/04 12:10:35;;;;;;;15.90;10.53;;;;;;;11.88;47.65;94953.00;5076440;28;20445;-88
2022/04/04 12:13:05;;;;;;;17.70;10.67;;;;;;;11.83;48.10;94952.56;5075812;28;20455;-87
2022/04/04 12:15:34;;;;;;;10.40;8.90;;;;;;;11.94;46.57;94952.44;5075780;28;20453;-87
2022/04/04 12:18:04;;;;;;;11.10;9.53;;;;;;;12.01;46.83;94938.59;5075633;28;20816;-88
2022/04/04 12:20:40;;;;;;;13.30;10.30;;;;;;;12.20;47.52;94943.06;5073143;28;20449;-87
2022/04/04 12:25:54;;;;;;;9.90;8.10;;;;;;;12.38;45.54;94924.75;5055735;28;20789;-88
2022/04/04 12:28:29;;;;;;;10.20;8.90;;;;;;;12.43;44.92;94924.31;5055711;28;20454;-88
2022/04/04 12:30:56;;;;;;;11.33;9.30;;;;;;;12.35;46.10;94912.72;5055195;28;20440;-88
2022/04/04 12:33:31;;;;;;;12.73;8.50;;;;;;;12.36;44.97;94913.53;5055219;28;20457;-87
2022/04/04 12:35:58;;;;;;;11.93;8.83;;;;;;;12.08;45.87;94902.06;5055494;28;20483;-87
2022/04/04 12:38:27;;;;;;;10.70;8.77;;;;;;;12.01;47.72;94900.97;5054648;28;20477;-86
2022/04/04 12:41:09;;;;;;;13.10;9.10;;;;;;;12.05;48.16;94908.44;5054927;28;20461;-87
2022/04/04 12:43:39;;;;;;;13.47;8.30;;;;;;;12.00;47.02;94899.31;5056562;28;20414;-88
2022/04/04 12:46:08;;;;;;;14.40;8.17;;;;;;;11.89;46.63;94896.81;5056161;28;20438;-87
2022/04/04 12:48:37;;;;;;;9.50;8.07;;;;;;;11.98;46.08;94895.97;5055238;28;20472;-87
2022/04/04 12:51:05;;;;;;;9.63;7.43;;;;;;;11.91;47.15;94889.63;5055245;28;20811;-87
2022/04/04 12:53:48;;;;;;;11.27;8.70;;;;;;;11.90;46.14;94877.44;5054743;28;20966;-87
2022/04/04 12:56:15;;;;;;;11.53;8.27;;;;;;;11.96;47.36;94877.72;5054884;28;20524;-87
2022/04/04 12:58:44;;;;;;;14.43;9.13;;;;;;;12.05;46.65;94861.09;5055630;28;20485;-87